createdAt,value
2023-04-27T00:01:22.120Z,99802.52
2023-04-27T00:03:49.287Z,99801.23
2023-04-27T00:06:16.885Z,99806.73
2023-04-27T00:08:43.816Z,99804.79
2023-04-27T00:11:10.899Z,99802.86
2023-04-27T00:13:37.950Z,99810.13
2023-04-27T00:16:05.240Z,99816.02
2023-04-27T00:18:32.471Z,99823.27
2023-04-27T00:21:00.134Z,99833.02
2023-04-27T00:23:27.989Z,99841.14
2023-04-27T00:25:54.909Z,99845.06
2023-04-27T00:28:21.812Z,99844.11
2023-04-27T00:30:49.057Z,99846.89
2023-04-27T00:33:17.110Z,99853.06
2023-04-27T00:35:44.040Z,99851.08
2023-04-27T00:38:11.726Z,99849.45
2023-04-27T00:40:39.277Z,99850.44
2023-04-27T00:43:06.368Z,99850.23
2023-04-27T00:45:37.897Z,99854.02
2023-04-27T00:48:05.101Z,99855.85
2023-04-27T00:50:32.103Z,99862.88
2023-04-27T00:52:59.018Z,99860.00
2023-04-27T00:55:26.021Z,99857.35
2023-04-27T00:57:53.003Z,99857.67
2023-04-27T01:00:20.141Z,99861.35
2023-04-27T01:02:48.172Z,99855.27
2023-04-27T01:05:17.896Z,99853.08
2023-04-27T01:07:46.595Z,99849.48
2023-04-27T01:10:13.557Z,99850.67
2023-04-27T01:12:42.225Z,99849.19
2023-04-27T01:15:10.429Z,99846.29
2023-04-27T01:17:37.526Z,99840.27
2023-04-27T01:20:07.565Z,99834.59
2023-04-27T01:22:34.811Z,99834.98
2023-04-27T01:25:01.861Z,99841.36
2023-04-27T01:27:31.303Z,99846.23
2023-04-27T01:29:58.299Z,99852.36
2023-04-27T01:32:26.139Z,99857.70
2023-04-27T01:34:53.155Z,99859.86
2023-04-27T01:37:20.101Z,99861.73
2023-04-27T01:39:47.462Z,99862.78
2023-04-27T01:42:14.375Z,99864.01
2023-04-27T01:44:41.338Z,99875.73
2023-04-27T01:47:09.475Z,99880.06
2023-04-27T01:49:36.539Z,99880.77
2023-04-27T01:52:03.784Z,99883.27
2023-04-27T01:54:30.759Z,99882.02
2023-04-27T01:56:58.884Z,99884.88
2023-04-27T01:59:25.881Z,99892.12
2023-04-27T02:01:59.488Z,99892.33
2023-04-27T02:04:26.609Z,99894.48
2023-04-27T02:06:53.742Z,99897.95
2023-04-27T02:09:20.692Z,99896.22
2023-04-27T02:11:47.661Z,99892.99
2023-04-27T02:14:14.724Z,99892.79
2023-04-27T02:16:41.714Z,99892.92
2023-04-27T02:19:08.692Z,99901.05
2023-04-27T02:21:36.418Z,99898.58
2023-04-27T02:24:03.553Z,99896.23
2023-04-27T02:26:31.009Z,99895.05
2023-04-27T02:28:58.175Z,99896.48
2023-04-27T02:31:25.793Z,99898.27
2023-04-27T02:33:53.098Z,99900.25
2023-04-27T02:36:20.054Z,99901.77
2023-04-27T02:38:47.319Z,99901.42
2023-04-27T02:41:14.236Z,99903.59
2023-04-27T02:43:41.445Z,99904.89
2023-04-27T02:46:08.720Z,99910.65
2023-04-27T02:48:35.791Z,99913.68
2023-04-27T02:51:04.898Z,99918.02
2023-04-27T02:53:31.823Z,99922.39
2023-04-27T02:55:59.402Z,99918.64
2023-04-27T02:58:26.821Z,99921.79
2023-04-27T03:00:55.859Z,99917.00
2023-04-27T03:03:23.734Z,99917.44
2023-04-27T03:05:51.141Z,99917.29
2023-04-27T03:08:18.901Z,99919.09
2023-04-27T03:10:45.851Z,99923.08
2023-04-27T03:13:14.150Z,99925.70
2023-04-27T03:15:43.277Z,99925.42
2023-04-27T03:18:10.292Z,99927.75
2023-04-27T03:20:37.295Z,99933.55
2023-04-27T03:23:04.359Z,99939.89
2023-04-27T03:25:31.407Z,99941.40
2023-04-27T03:27:58.432Z,99943.35
2023-04-27T03:30:25.374Z,99947.80
2023-04-27T03:32:52.344Z,99949.11
2023-04-27T03:35:19.692Z,99952.08
2023-04-27T03:37:47.054Z,99954.84
2023-04-27T03:40:14.628Z,99956.85
2023-04-27T03:42:41.631Z,99962.52
2023-04-27T03:45:09.603Z,99965.77
2023-04-27T03:47:36.593Z,99964.23
2023-04-27T03:50:04.450Z,99968.55
2023-04-27T03:52:32.835Z,99963.25
2023-04-27T03:55:01.314Z,99961.64
2023-04-27T03:57:28.422Z,99959.52
2023-04-27T03:59:55.728Z,99960.81
2023-04-27T04:02:23.629Z,99959.45
2023-04-27T04:04:51.117Z,99963.13
2023-04-27T04:07:18.270Z,99962.60
2023-04-27T04:09:45.466Z,99965.55
2023-04-27T04:12:12.489Z,99967.80
2023-04-27T04:14:40.188Z,99964.90
2023-04-27T04:17:09.733Z,99969.08
2023-04-27T04:19:36.722Z,99969.70
2023-04-27T04:22:03.649Z,99968.85
2023-04-27T04:24:30.904Z,99964.33
2023-04-27T04:26:58.772Z,99966.91
2023-04-27T04:29:25.896Z,99969.02
2023-04-27T04:31:52.955Z,99973.73
2023-04-27T04:34:20.214Z,99976.96
2023-04-27T04:36:47.337Z,99973.79
2023-04-27T04:39:15.121Z,99976.13
2023-04-27T04:41:43.688Z,99977.73
2023-04-27T04:44:11.749Z,99976.23
2023-04-27T04:46:39.068Z,99981.16
2023-04-27T04:49:06.672Z,99983.28
2023-04-27T04:51:33.886Z,99986.91
2023-04-27T04:54:01.973Z,99990.64
2023-04-27T04:56:29.344Z,99986.81
2023-04-27T04:58:56.613Z,99989.17
2023-04-27T05:01:24.928Z,99994.33
2023-04-27T05:03:52.033Z,99999.06
2023-04-27T05:06:19.248Z,99999.08
2023-04-27T05:08:46.260Z,99998.88
2023-04-27T05:11:13.462Z,99994.54
2023-04-27T05:13:40.493Z,99995.06
2023-04-27T05:16:07.889Z,99990.45
2023-04-27T05:18:34.989Z,99999.84
2023-04-27T05:21:02.359Z,99998.27
2023-04-27T05:23:29.420Z,99997.00
2023-04-27T05:25:56.390Z,99999.05
2023-04-27T05:28:23.489Z,100005.41
2023-04-27T05:30:50.848Z,100007.27
2023-04-27T05:33:17.923Z,100006.34
2023-04-27T05:35:44.919Z,100012.21
2023-04-27T05:38:15.206Z,100011.73
2023-04-27T05:40:42.166Z,100010.06
2023-04-27T05:43:09.076Z,100007.46
2023-04-27T05:45:39.908Z,100011.15
2023-04-27T05:48:06.999Z,100015.48
2023-04-27T05:50:34.019Z,100021.14
2023-04-27T05:53:01.159Z,100026.65
2023-04-27T05:55:28.234Z,100028.07
2023-04-27T05:58:07.107Z,100029.06
2023-04-27T06:00:36.707Z,100031.27
2023-04-27T06:03:04.026Z,100028.31
2023-04-27T06:05:31.743Z,100032.57
2023-04-27T06:07:58.988Z,100032.88
2023-04-27T06:10:26.272Z,100031.64
2023-04-27T06:12:53.323Z,100029.06
2023-04-27T06:15:21.013Z,100031.14
2023-04-27T06:17:48.068Z,100028.73
2023-04-27T06:20:15.919Z,100037.34
2023-04-27T06:22:43.726Z,100034.73
2023-04-27T06:25:10.670Z,100034.49
2023-04-27T06:27:37.740Z,100034.71
2023-04-27T06:30:05.300Z,100033.48
2023-04-27T06:32:32.313Z,100039.52
2023-04-27T06:34:59.462Z,100038.58
2023-04-27T06:37:26.480Z,100039.77
2023-04-27T06:39:54.360Z,100039.76
2023-04-27T06:42:21.323Z,100041.20
2023-04-27T06:44:48.359Z,100039.98
2023-04-27T06:47:15.363Z,100044.29
2023-04-27T06:49:42.304Z,100045.36
2023-04-27T06:52:09.206Z,100049.55
2023-04-27T06:54:36.336Z,100052.18
2023-04-27T06:57:03.495Z,100056.88
2023-04-27T06:59:30.495Z,100058.75
2023-04-27T07:01:57.614Z,100057.32
2023-04-27T07:04:24.836Z,100062.02
2023-04-27T07:06:51.929Z,100065.73
2023-04-27T07:09:27.059Z,100071.32
2023-04-27T07:11:55.485Z,100068.50
2023-04-27T07:14:22.547Z,100071.64
2023-04-27T07:16:49.482Z,100072.02
2023-04-27T07:19:16.971Z,100074.58
2023-04-27T07:21:43.986Z,100072.82
2023-04-27T07:24:11.248Z,100072.84
2023-04-27T07:26:38.193Z,100073.23
2023-04-27T07:29:14.456Z,100075.38
2023-04-27T07:31:53.093Z,100076.16
2023-04-27T07:34:20.518Z,100080.95
2023-04-27T07:36:47.659Z,100085.71
2023-04-27T07:39:15.248Z,100089.83
2023-04-27T07:41:42.462Z,100093.63
2023-04-27T07:44:09.477Z,100093.91
2023-04-27T07:46:36.562Z,100092.66
2023-04-27T07:49:04.032Z,100097.40
2023-04-27T07:51:32.156Z,100098.17
2023-04-27T07:53:59.253Z,100101.75
2023-04-27T07:56:26.435Z,100103.81
2023-04-27T07:58:53.428Z,100102.96
2023-04-27T08:01:22.136Z,100106.41
2023-04-27T08:03:49.319Z,100103.39
2023-04-27T08:06:17.162Z,100103.93
2023-04-27T08:08:44.485Z,100104.94
2023-04-27T08:11:12.333Z,100105.23
2023-04-27T08:13:39.402Z,100111.35
2023-04-27T08:16:07.198Z,100113.16
2023-04-27T08:18:34.652Z,100116.25
2023-04-27T08:21:01.660Z,100114.84
2023-04-27T08:23:29.646Z,100118.98
2023-04-27T08:25:56.676Z,100117.20
2023-04-27T08:28:23.898Z,100120.91
2023-04-27T08:30:51.979Z,100125.10
2023-04-27T08:33:18.949Z,100123.70
2023-04-27T08:35:46.016Z,100127.32
2023-04-27T08:38:13.064Z,100127.79
2023-04-27T08:40:44.111Z,100127.77
2023-04-27T08:43:11.371Z,100122.16
2023-04-27T08:45:38.418Z,100117.73
2023-04-27T08:48:06.391Z,100115.29
2023-04-27T08:50:33.431Z,100119.30
2023-04-27T08:53:00.768Z,100113.73
2023-04-27T08:55:28.257Z,100118.59
2023-04-27T08:57:58.753Z,100113.38
2023-04-27T09:00:27.932Z,100109.84
2023-04-27T09:02:55.289Z,100112.29
2023-04-27T09:05:23.809Z,100111.77
2023-04-27T09:08:02.441Z,100110.11
2023-04-27T09:10:29.818Z,100111.90
2023-04-27T09:12:58.126Z,100114.96
2023-04-27T09:15:25.252Z,100115.95
2023-04-27T09:17:56.756Z,100115.91
2023-04-27T09:20:27.042Z,100119.33
2023-04-27T09:22:58.800Z,100117.95
2023-04-27T09:25:28.202Z,100116.16
2023-04-27T09:27:56.293Z,100113.91
2023-04-27T09:30:23.438Z,100116.13
2023-04-27T09:33:03.993Z,100115.69
2023-04-27T09:35:32.901Z,100118.27
2023-04-27T09:38:00.923Z,100120.56
2023-04-27T09:40:29.884Z,100119.17
2023-04-27T09:43:03.791Z,100120.48
2023-04-27T09:45:33.830Z,100118.80
2023-04-27T09:48:02.369Z,100117.77
2023-04-27T09:50:29.381Z,100119.08
2023-04-27T09:52:57.342Z,100116.98
2023-04-27T09:55:40.710Z,100119.34
2023-04-27T09:58:46.521Z,100121.84
2023-04-27T10:01:37.291Z,100120.81
2023-04-27T10:04:36.594Z,100118.66
2023-04-27T10:07:13.099Z,100121.91
2023-04-27T10:09:41.866Z,100120.20
2023-04-27T10:12:20.045Z,100122.73
2023-04-27T10:14:57.192Z,100126.20
2023-04-27T10:17:34.676Z,100124.52
2023-04-27T10:20:10.889Z,100129.20
2023-04-27T10:22:48.052Z,100129.55
2023-04-27T10:25:16.741Z,100129.84
2023-04-27T10:27:43.842Z,100136.45
2023-04-27T10:30:11.853Z,100136.39
2023-04-27T10:32:38.877Z,100144.00
2023-04-27T10:35:07.690Z,100143.35
2023-04-27T10:37:44.095Z,100146.16
2023-04-27T10:40:15.138Z,100148.34
2023-04-27T10:42:42.296Z,100153.39
2023-04-27T10:45:09.713Z,100154.09
2023-04-27T10:47:44.329Z,100156.79
2023-04-27T10:50:13.702Z,100155.66
2023-04-27T10:52:44.367Z,100159.16
2023-04-27T10:55:22.280Z,100158.52
2023-04-27T10:57:56.098Z,100157.63
2023-04-27T11:00:35.296Z,100160.13
2023-04-27T11:03:20.695Z,100163.66
2023-04-27T11:05:49.307Z,100166.63
2023-04-27T11:08:17.444Z,100164.72
2023-04-27T11:10:46.630Z,100163.75
2023-04-27T11:13:15.331Z,100164.17
2023-04-27T11:15:44.990Z,100163.79
2023-04-27T11:18:12.356Z,100165.02
2023-04-27T11:20:39.384Z,100163.98
2023-04-27T11:23:06.386Z,100167.81
2023-04-27T11:25:33.347Z,100172.25
2023-04-27T11:28:00.429Z,100172.79
2023-04-27T11:30:27.406Z,100175.71
2023-04-27T11:32:54.731Z,100177.58
2023-04-27T11:35:32.711Z,100175.79
2023-04-27T11:37:59.774Z,100171.98
2023-04-27T11:40:28.765Z,100176.73
2023-04-27T11:42:59.685Z,100178.60
2023-04-27T11:45:30.141Z,100180.82
2023-04-27T11:48:00.994Z,100184.90
2023-04-27T11:50:28.042Z,100185.45
2023-04-27T11:52:56.081Z,100186.28
2023-04-27T11:55:24.834Z,100187.60
2023-04-27T11:57:57.285Z,100184.86
2023-04-27T12:00:25.036Z,100185.23
2023-04-27T12:02:52.189Z,100179.70
2023-04-27T12:05:20.604Z,100180.22
2023-04-27T12:07:48.177Z,100178.61
2023-04-27T12:10:15.244Z,100179.55
2023-04-27T12:12:42.541Z,100177.67
2023-04-27T12:15:10.374Z,100179.88
2023-04-27T12:17:38.967Z,100182.52
2023-04-27T12:20:06.516Z,100183.75
2023-04-27T12:22:34.027Z,100183.77
2023-04-27T12:25:01.827Z,100185.30
2023-04-27T12:27:29.063Z,100189.46
2023-04-27T12:29:58.959Z,100188.42
2023-04-27T12:32:26.157Z,100190.83
2023-04-27T12:34:53.817Z,100191.36
2023-04-27T12:37:21.791Z,100191.70
2023-04-27T12:39:49.899Z,100192.20
2023-04-27T12:42:20.023Z,100190.48
2023-04-27T12:44:47.639Z,100189.05
2023-04-27T12:47:27.798Z,100192.29
2023-04-27T12:50:01.516Z,100195.96
2023-04-27T12:52:28.963Z,100196.24
2023-04-27T12:54:59.400Z,100198.16
2023-04-27T12:57:26.923Z,100198.40
2023-04-27T12:59:53.852Z,100200.62
2023-04-27T13:02:21.149Z,100202.90
2023-04-27T13:04:48.711Z,100204.30
2023-04-27T13:07:15.853Z,100207.94
2023-04-27T13:09:42.854Z,100209.87
2023-04-27T13:12:09.917Z,100206.17
2023-04-27T13:14:36.946Z,100209.25
2023-04-27T13:17:04.462Z,100210.77
2023-04-27T13:19:31.817Z,100212.34
2023-04-27T13:21:58.777Z,100211.70
2023-04-27T13:24:26.090Z,100209.03
2023-04-27T13:26:53.040Z,100214.89
2023-04-27T13:29:20.079Z,100215.02
2023-04-27T13:31:47.121Z,100216.66
2023-04-27T13:34:14.836Z,100218.50
2023-04-27T13:36:42.049Z,100219.28
2023-04-27T13:39:09.018Z,100224.98
2023-04-27T13:41:36.275Z,100225.98
2023-04-27T13:44:03.525Z,100226.35
2023-04-27T13:46:30.895Z,100227.15
2023-04-27T13:48:57.953Z,100225.62
2023-04-27T13:51:25.379Z,100225.81
2023-04-27T13:53:52.343Z,100221.20
2023-04-27T13:56:19.325Z,100226.88
2023-04-27T13:58:46.617Z,100227.83
2023-04-27T14:01:13.682Z,100227.52
2023-04-27T14:03:43.308Z,100231.19
2023-04-27T14:06:10.852Z,100230.92
2023-04-27T14:08:38.011Z,100233.14
2023-04-27T14:11:06.751Z,100234.98
2023-04-27T14:13:33.684Z,100240.38
2023-04-27T14:16:00.708Z,100244.00
2023-04-27T14:18:32.437Z,100241.21
2023-04-27T14:20:59.910Z,100244.03
2023-04-27T14:23:27.352Z,100242.83
2023-04-27T14:25:54.304Z,100245.77
2023-04-27T14:28:21.613Z,100247.81
2023-04-27T14:30:48.594Z,100248.42
2023-04-27T14:33:15.738Z,100248.27
2023-04-27T14:35:46.301Z,100254.41
2023-04-27T14:38:13.361Z,100256.69
2023-04-27T14:40:41.282Z,100260.30
2023-04-27T14:43:08.299Z,100261.16
2023-04-27T14:45:47.773Z,100263.27
2023-04-27T14:48:17.592Z,100264.40
2023-04-27T14:50:44.700Z,100265.58
2023-04-27T14:53:11.688Z,100266.02
2023-04-27T14:55:38.693Z,100262.36
2023-04-27T14:58:05.762Z,100262.35
2023-04-27T15:00:32.728Z,100259.15
2023-04-27T15:02:59.847Z,100259.61
2023-04-27T15:05:26.800Z,100255.92
2023-04-27T15:07:53.824Z,100259.27
2023-04-27T15:10:21.054Z,100258.48
2023-04-27T15:12:48.037Z,100257.48
2023-04-27T15:15:15.138Z,100255.92
2023-04-27T15:17:42.140Z,100256.09
2023-04-27T15:20:09.308Z,100256.14
2023-04-27T15:22:36.534Z,100255.70
2023-04-27T15:25:03.875Z,100260.09
2023-04-27T15:27:30.943Z,100268.30
2023-04-27T15:29:58.290Z,100271.14
2023-04-27T15:32:30.177Z,100272.63
2023-04-27T15:34:57.813Z,100277.63
2023-04-27T15:37:25.829Z,100276.92
2023-04-27T15:39:52.722Z,100282.65
2023-04-27T15:42:19.759Z,100282.12
2023-04-27T15:44:54.269Z,100287.36
2023-04-27T15:47:21.843Z,100291.95
2023-04-27T15:49:57.004Z,100295.11
2023-04-27T15:52:25.812Z,100297.20
2023-04-27T15:54:52.719Z,100298.18
2023-04-27T15:57:19.689Z,100302.41
2023-04-27T15:59:46.779Z,100300.17
2023-04-27T16:02:13.868Z,100297.40
2023-04-27T16:04:40.961Z,100304.40
2023-04-27T16:07:08.485Z,100302.44
2023-04-27T16:09:35.558Z,100303.58
2023-04-27T16:12:04.021Z,100303.48
2023-04-27T16:14:31.120Z,100306.04
2023-04-27T16:17:02.167Z,100307.49
2023-04-27T16:19:29.230Z,100305.84
2023-04-27T16:21:56.477Z,100306.11
2023-04-27T16:24:25.173Z,100308.08
2023-04-27T16:26:52.159Z,100306.69
2023-04-27T16:29:19.193Z,100300.85
2023-04-27T16:31:49.946Z,100298.60
2023-04-27T16:34:16.917Z,100298.80
2023-04-27T16:36:44.847Z,100296.85
2023-04-27T16:39:14.227Z,100301.70
2023-04-27T16:41:41.508Z,100301.91
2023-04-27T16:44:08.950Z,100304.32
2023-04-27T16:46:36.178Z,100306.80
2023-04-27T16:49:03.916Z,100311.50
2023-04-27T16:51:31.224Z,100312.33
2023-04-27T16:54:01.107Z,100306.09
2023-04-27T16:56:29.864Z,100307.20
2023-04-27T16:58:56.945Z,100306.40
2023-04-27T17:01:27.307Z,100307.59
2023-04-27T17:03:54.427Z,100315.11
2023-04-27T17:06:21.590Z,100316.21
2023-04-27T17:08:48.509Z,100323.77
2023-04-27T17:11:15.621Z,100326.63
2023-04-27T17:13:42.581Z,100333.92
2023-04-27T17:16:13.495Z,100334.16
2023-04-27T17:18:42.960Z,100332.80
2023-04-27T17:21:10.818Z,100337.58
2023-04-27T17:23:38.074Z,100340.79
2023-04-27T17:26:05.197Z,100346.66
2023-04-27T17:28:32.386Z,100345.83
2023-04-27T17:31:00.379Z,100349.54
2023-04-27T17:33:27.401Z,100355.35
2023-04-27T17:35:54.378Z,100354.27
2023-04-27T17:38:21.502Z,100355.83
2023-04-27T17:40:49.029Z,100359.50
2023-04-27T17:43:16.079Z,100360.23
2023-04-27T17:45:43.129Z,100362.23
2023-04-27T17:48:10.951Z,100361.63
2023-04-27T17:50:38.128Z,100356.29
2023-04-27T17:53:06.008Z,100358.40
2023-04-27T17:55:33.383Z,100359.29
2023-04-27T17:58:00.546Z,100358.41
2023-04-27T18:00:27.711Z,100356.19
2023-04-27T18:02:55.131Z,100361.85
2023-04-27T18:05:22.281Z,100360.52
2023-04-27T18:07:50.234Z,100365.31
2023-04-27T18:10:17.320Z,100372.70
2023-04-27T18:12:44.290Z,100373.08
2023-04-27T18:15:11.542Z,100376.25
2023-04-27T18:17:38.751Z,100375.23
2023-04-27T18:20:09.899Z,100378.35
2023-04-27T18:22:40.256Z,100379.21
2023-04-27T18:25:09.982Z,100385.58
2023-04-27T18:27:37.883Z,100385.08
2023-04-27T18:30:06.359Z,100390.46
2023-04-27T18:32:34.158Z,100398.63
2023-04-27T18:35:01.290Z,100402.44
2023-04-27T18:37:28.386Z,100404.65
2023-04-27T18:39:55.844Z,100404.38
2023-04-27T18:42:23.604Z,100400.15
2023-04-27T18:44:59.937Z,100399.22
2023-04-27T18:47:27.837Z,100395.56
2023-04-27T18:49:55.045Z,100398.34
2023-04-27T18:52:22.115Z,100402.13
2023-04-27T18:54:49.165Z,100402.35
2023-04-27T18:57:17.376Z,100407.23
2023-04-27T18:59:44.462Z,100409.69
2023-04-27T19:02:11.529Z,100410.73
2023-04-27T19:04:39.682Z,100411.23
2023-04-27T19:07:08.099Z,100411.73
2023-04-27T19:09:35.442Z,100413.45
2023-04-27T19:12:03.752Z,100416.54
2023-04-27T19:14:31.908Z,100414.59
2023-04-27T19:16:59.074Z,100416.13
2023-04-27T19:19:26.889Z,100417.98
2023-04-27T19:21:58.556Z,100419.67
2023-04-27T19:24:26.247Z,100420.73
2023-04-27T19:26:53.249Z,100418.89
2023-04-27T19:29:23.137Z,100416.85
2023-04-27T19:31:50.062Z,100418.98
2023-04-27T19:34:17.082Z,100419.14
2023-04-27T19:36:44.016Z,100424.84
2023-04-27T19:39:13.557Z,100426.25
2023-04-27T19:41:40.886Z,100433.16
2023-04-27T19:44:07.808Z,100435.18
2023-04-27T19:46:34.841Z,100437.21
2023-04-27T19:49:02.144Z,100439.27
2023-04-27T19:51:29.649Z,100443.27
2023-04-27T19:53:56.772Z,100447.80
2023-04-27T19:56:23.953Z,100444.33
2023-04-27T19:58:51.173Z,100450.11
2023-04-27T20:01:18.302Z,100451.41
2023-04-27T20:03:45.561Z,100452.80
2023-04-27T20:06:12.780Z,100456.27
2023-04-27T20:08:39.831Z,100460.48
2023-04-27T20:11:06.792Z,100464.92
2023-04-27T20:13:33.735Z,100464.14
2023-04-27T20:16:00.716Z,100465.96
2023-04-27T20:18:31.732Z,100460.21
2023-04-27T20:21:02.142Z,100455.69
2023-04-27T20:23:29.405Z,100454.30
2023-04-27T20:25:56.764Z,100456.88
2023-04-27T20:28:23.708Z,100459.98
2023-04-27T20:30:50.761Z,100459.61
2023-04-27T20:33:17.877Z,100455.36
2023-04-27T20:35:47.395Z,100460.38
2023-04-27T20:38:14.379Z,100462.92
2023-04-27T20:40:42.283Z,100465.98
2023-04-27T20:43:09.728Z,100469.38
2023-04-27T20:45:36.730Z,100470.06
2023-04-27T20:48:04.039Z,100469.03
2023-04-27T20:50:31.199Z,100467.98
2023-04-27T20:52:58.176Z,100470.05
2023-04-27T20:55:25.193Z,100469.53
2023-04-27T20:57:52.214Z,100468.41
2023-04-27T21:00:19.413Z,100470.27
2023-04-27T21:02:48.291Z,100465.95
2023-04-27T21:05:16.363Z,100467.02
2023-04-27T21:07:43.306Z,100466.80
2023-04-27T21:10:12.843Z,100467.83
2023-04-27T21:12:39.867Z,100467.34
2023-04-27T21:15:13.071Z,100470.34
2023-04-27T21:17:40.079Z,100469.33
2023-04-27T21:20:10.035Z,100471.27
2023-04-27T21:22:37.539Z,100475.80
2023-04-27T21:25:04.819Z,100476.11
2023-04-27T21:27:31.885Z,100480.27
2023-04-27T21:29:58.862Z,100483.52
2023-04-27T21:32:26.033Z,100482.29
2023-04-27T21:34:53.070Z,100480.55
2023-04-27T21:37:20.032Z,100478.19
2023-04-27T21:39:46.992Z,100477.02
2023-04-27T21:42:13.985Z,100476.41
2023-04-27T21:44:41.326Z,100471.08
2023-04-27T21:47:08.313Z,100471.52
2023-04-27T21:49:35.408Z,100467.64
2023-04-27T21:52:02.395Z,100467.16
2023-04-27T21:54:29.382Z,100466.02
2023-04-27T21:56:56.315Z,100467.27
2023-04-27T21:59:23.281Z,100461.92
2023-04-27T22:01:50.628Z,100461.11
2023-04-27T22:04:18.100Z,100467.27
2023-04-27T22:06:45.556Z,100462.36
2023-04-27T22:09:12.620Z,100464.96
2023-04-27T22:11:39.725Z,100466.20
2023-04-27T22:14:06.692Z,100465.33
2023-04-27T22:16:33.628Z,100464.13
2023-04-27T22:19:00.607Z,100461.80
2023-04-27T22:21:29.001Z,100464.52
2023-04-27T22:23:55.959Z,100465.67
2023-04-27T22:26:29.730Z,100457.94
2023-04-27T22:28:56.704Z,100455.73
2023-04-27T22:31:23.765Z,100454.95
2023-04-27T22:33:51.350Z,100455.38
2023-04-27T22:36:18.348Z,100460.42
2023-04-27T22:38:45.268Z,100458.11
2023-04-27T22:41:12.533Z,100454.45
2023-04-27T22:43:39.533Z,100454.73
2023-04-27T22:46:06.548Z,100455.19
2023-04-27T22:48:33.636Z,100458.63
2023-04-27T22:51:00.600Z,100455.49
2023-04-27T22:53:27.557Z,100455.48
2023-04-27T22:55:54.594Z,100451.52
2023-04-27T22:58:21.967Z,100454.49
2023-04-27T23:00:48.962Z,100453.96
2023-04-27T23:03:16.128Z,100454.17
2023-04-27T23:05:43.551Z,100453.63
2023-04-27T23:08:10.536Z,100452.94
2023-04-27T23:10:38.988Z,100453.16
2023-04-27T23:13:07.431Z,100452.98
2023-04-27T23:15:34.383Z,100451.42
2023-04-27T23:18:01.482Z,100446.96
2023-04-27T23:20:29.339Z,100444.27
2023-04-27T23:22:56.761Z,100447.39
2023-04-27T23:25:23.825Z,100447.75
2023-04-27T23:27:52.137Z,100449.38
2023-04-27T23:30:21.489Z,100447.17
2023-04-27T23:32:48.552Z,100447.20
2023-04-27T23:35:15.753Z,100448.20
2023-04-27T23:37:43.013Z,100445.61
2023-04-27T23:40:10.222Z,100449.59
2023-04-27T23:42:37.129Z,100449.04
2023-04-27T23:45:05.196Z,100451.59
2023-04-27T23:47:34.108Z,100451.98
2023-04-27T23:50:02.468Z,100447.48
2023-04-27T23:52:29.562Z,100445.23
2023-04-27T23:54:57.888Z,100450.13
2023-04-27T23:57:24.817Z,100449.83
2023-04-27T23:59:51.750Z,100453.05
